Terminal Aerodrome Forecast
Issued by NWS

Home | Current Version | Previous Version | Text Only | Print | Product List | Glossary On
Versions: 1 2 3 4 5 6 7 8 9 10 11 12 13 14 15 16
000
FTUS43 KAPX 260500
TAFAPN
TAF
KAPN 260520Z 2606/2706 VRB03KT P6SM VCSH BKN050 BKN100
     FM261400 22007KT P6SM -SHRA OVC030
     FM262000 07008KT P6SM OVC035=

USA.gov is the U.S. government's official web portal to all federal, state and local government web resources and services.